createdAt,value
2023-04-18T00:01:44.844Z,89.21
2023-04-18T00:03:50.145Z,89.53
2023-04-18T00:05:55.402Z,89.11
2023-04-18T00:08:00.892Z,89.20
2023-04-18T00:10:06.634Z,89.47
2023-04-18T00:12:11.749Z,89.31
2023-04-18T00:14:16.863Z,89.71
2023-04-18T00:16:27.411Z,89.64
2023-04-18T00:18:32.371Z,89.75
2023-04-18T00:20:39.174Z,90.05
2023-04-18T00:22:46.809Z,90.07
2023-04-18T00:24:55.058Z,90.13
2023-04-18T00:27:00.141Z,89.93
2023-04-18T00:29:08.750Z,89.85
2023-04-18T00:31:23.561Z,89.70
2023-04-18T00:33:31.434Z,89.62
2023-04-18T00:35:38.588Z,89.61
2023-04-18T00:37:43.472Z,89.64
2023-04-18T00:39:49.089Z,89.49
2023-04-18T00:41:56.117Z,89.30
2023-04-18T00:44:02.678Z,89.49
2023-04-18T00:46:08.025Z,89.61
2023-04-18T00:48:14.093Z,89.10
2023-04-18T00:50:23.913Z,89.32
2023-04-18T00:52:36.597Z,89.12
2023-04-18T00:54:42.994Z,89.28
2023-04-18T00:56:50.506Z,88.77
2023-04-18T00:58:57.468Z,88.30
2023-04-18T01:01:04.252Z,88.26
2023-04-18T01:03:11.019Z,88.17
2023-04-18T01:05:16.609Z,87.77
2023-04-18T01:07:26.762Z,87.81
2023-04-18T01:09:37.801Z,87.41
2023-04-18T01:11:55.097Z,87.31
2023-04-18T01:14:14.889Z,86.64
2023-04-18T01:16:23.094Z,86.77
2023-04-18T01:18:34.384Z,85.78
2023-04-18T01:20:42.859Z,85.42
2023-04-18T01:22:52.891Z,85.40
2023-04-18T01:25:02.164Z,85.19
2023-04-18T01:27:09.025Z,84.73
2023-04-18T01:29:16.196Z,84.47
2023-04-18T01:31:26.929Z,83.81
2023-04-18T01:33:32.110Z,83.94
2023-04-18T01:35:39.663Z,83.26
2023-04-18T01:37:44.624Z,83.20
2023-04-18T01:39:50.744Z,83.24
2023-04-18T01:41:58.258Z,82.79
2023-04-18T01:44:04.453Z,81.79
2023-04-18T01:46:09.471Z,81.95
2023-04-18T01:48:14.706Z,81.66
2023-04-18T01:50:20.241Z,80.86
2023-04-18T01:52:28.434Z,80.02
2023-04-18T01:54:34.176Z,79.75
2023-04-18T01:56:39.241Z,79.70
2023-04-18T01:58:47.049Z,79.25
2023-04-18T02:00:55.032Z,79.14
2023-04-18T02:03:02.517Z,78.54
2023-04-18T02:05:09.709Z,78.59
2023-04-18T02:07:15.051Z,77.67
2023-04-18T02:09:19.980Z,77.98
2023-04-18T02:11:28.008Z,77.39
2023-04-18T02:13:33.151Z,77.28
2023-04-18T02:15:44.139Z,77.65
2023-04-18T02:17:49.450Z,76.96
2023-04-18T02:19:54.501Z,76.99
2023-04-18T02:21:59.641Z,76.74
2023-04-18T02:24:05.630Z,76.06
2023-04-18T02:26:10.674Z,76.16
2023-04-18T02:28:15.611Z,75.91
2023-04-18T02:30:20.762Z,75.75
2023-04-18T02:32:30.460Z,75.50
2023-04-18T02:34:35.759Z,76.18
2023-04-18T02:36:41.889Z,75.75
2023-04-18T02:38:50.421Z,75.73
2023-04-18T02:40:56.338Z,75.76
2023-04-18T02:43:02.419Z,75.72
2023-04-18T02:45:10.211Z,75.78
2023-04-18T02:47:15.533Z,76.17
2023-04-18T02:49:25.184Z,75.77
2023-04-18T02:51:30.326Z,75.80
2023-04-18T02:53:36.674Z,75.59
2023-04-18T02:55:42.044Z,75.46
2023-04-18T02:57:49.623Z,75.46
2023-04-18T02:59:54.780Z,75.82
2023-04-18T03:01:59.864Z,75.68
2023-04-18T03:04:06.430Z,75.30
2023-04-18T03:06:19.052Z,75.45
2023-04-18T03:08:24.492Z,75.03
2023-04-18T03:10:29.504Z,74.98
2023-04-18T03:12:34.871Z,74.96
2023-04-18T03:14:39.991Z,75.27
2023-04-18T03:16:45.338Z,74.97
2023-04-18T03:18:50.418Z,74.83
2023-04-18T03:20:55.453Z,74.85
2023-04-18T03:23:03.039Z,75.01
2023-04-18T03:25:10.688Z,74.56
2023-04-18T03:27:19.205Z,75.02
2023-04-18T03:29:26.917Z,74.63
2023-04-18T03:31:34.579Z,74.32
2023-04-18T03:33:39.715Z,74.53
2023-04-18T03:35:44.854Z,74.20
2023-04-18T03:37:50.068Z,74.44
2023-04-18T03:39:57.961Z,74.26
2023-04-18T03:42:03.197Z,73.63
2023-04-18T03:44:09.588Z,73.67
2023-04-18T03:46:14.599Z,73.41
2023-04-18T03:48:19.924Z,73.00
2023-04-18T03:50:25.937Z,72.43
2023-04-18T03:52:31.223Z,72.60
2023-04-18T03:54:36.825Z,72.04
2023-04-18T03:56:44.814Z,71.79
2023-04-18T03:58:50.043Z,71.61
2023-04-18T04:00:55.479Z,71.38
2023-04-18T04:03:00.869Z,70.99
2023-04-18T04:05:06.276Z,71.18
2023-04-18T04:07:12.335Z,70.90
2023-04-18T04:09:20.291Z,70.55
2023-04-18T04:11:26.308Z,70.41
2023-04-18T04:13:35.164Z,70.47
2023-04-18T04:15:41.308Z,70.49
2023-04-18T04:17:46.330Z,70.21
2023-04-18T04:19:53.436Z,70.73
2023-04-18T04:21:58.510Z,70.32
2023-04-18T04:24:04.305Z,70.46
2023-04-18T04:26:09.983Z,70.78
2023-04-18T04:28:15.089Z,70.75
2023-04-18T04:30:28.933Z,70.75
2023-04-18T04:32:35.091Z,71.36
2023-04-18T04:34:41.683Z,70.70
2023-04-18T04:36:49.454Z,70.81
2023-04-18T04:38:54.490Z,70.85
2023-04-18T04:41:03.109Z,71.13
2023-04-18T04:43:12.964Z,71.28
2023-04-18T04:45:23.579Z,71.42
2023-04-18T04:47:31.710Z,71.01
2023-04-18T04:49:36.800Z,71.66
2023-04-18T04:51:41.996Z,71.58
2023-04-18T04:53:48.504Z,71.83
2023-04-18T04:55:54.187Z,71.54
2023-04-18T04:57:59.251Z,72.00
2023-04-18T05:00:06.402Z,71.81
2023-04-18T05:02:14.277Z,71.82
2023-04-18T05:04:21.529Z,71.99
2023-04-18T05:06:27.863Z,72.26
2023-04-18T05:08:32.833Z,72.14
2023-04-18T05:10:41.753Z,72.17
2023-04-18T05:12:46.780Z,72.38
2023-04-18T05:14:52.917Z,72.57
2023-04-18T05:16:58.945Z,72.54
2023-04-18T05:19:06.562Z,72.74
2023-04-18T05:21:11.457Z,72.83
2023-04-18T05:23:16.487Z,73.03
2023-04-18T05:25:24.720Z,72.72
2023-04-18T05:27:30.548Z,72.61
2023-04-18T05:29:36.108Z,72.70
2023-04-18T05:31:44.307Z,73.25
2023-04-18T05:33:49.410Z,73.24
2023-04-18T05:35:57.434Z,72.90
2023-04-18T05:38:02.806Z,73.46
2023-04-18T05:40:10.672Z,73.63
2023-04-18T05:42:15.913Z,73.80
2023-04-18T05:44:24.770Z,73.82
2023-04-18T05:46:30.009Z,73.75
2023-04-18T05:48:39.417Z,73.98
2023-04-18T05:50:44.654Z,73.54
2023-04-18T05:52:52.840Z,74.08
2023-04-18T05:54:57.969Z,74.07
2023-04-18T05:57:04.789Z,74.37
2023-04-18T05:59:10.200Z,74.73
2023-04-18T06:01:16.576Z,75.07
2023-04-18T06:03:24.039Z,74.54
2023-04-18T06:05:29.710Z,74.84
2023-04-18T06:07:36.082Z,74.49
2023-04-18T06:09:44.126Z,74.79
2023-04-18T06:11:49.887Z,75.28
2023-04-18T06:13:56.337Z,74.79
2023-04-18T06:16:01.674Z,74.53
2023-04-18T06:18:07.120Z,74.79
2023-04-18T06:20:13.301Z,75.09
2023-04-18T06:22:19.795Z,74.97
2023-04-18T06:24:24.862Z,75.06
2023-04-18T06:26:33.373Z,75.31
2023-04-18T06:28:39.177Z,75.27
2023-04-18T06:30:44.475Z,74.83
2023-04-18T06:32:49.735Z,74.56
2023-04-18T06:34:54.906Z,74.86
2023-04-18T06:36:59.923Z,75.13
2023-04-18T06:39:06.546Z,75.20
2023-04-18T06:41:11.648Z,74.69
2023-04-18T06:43:19.682Z,74.71
2023-04-18T06:45:24.877Z,74.64
2023-04-18T06:47:30.047Z,75.00
2023-04-18T06:49:36.630Z,74.94
2023-04-18T06:51:41.914Z,74.46
2023-04-18T06:53:50.612Z,74.06
2023-04-18T06:55:55.946Z,74.02
2023-04-18T06:58:01.100Z,74.04
2023-04-18T07:00:10.636Z,73.52
2023-04-18T07:02:15.791Z,73.58
2023-04-18T07:04:21.072Z,73.77
2023-04-18T07:06:26.476Z,73.38
2023-04-18T07:08:31.535Z,73.45
2023-04-18T07:10:36.642Z,73.34
2023-04-18T07:12:41.658Z,72.97
2023-04-18T07:14:49.276Z,72.73
2023-04-18T07:16:57.950Z,72.69
2023-04-18T07:19:04.584Z,73.36
2023-04-18T07:21:10.182Z,73.10
2023-04-18T07:23:15.340Z,73.26
2023-04-18T07:25:20.581Z,72.82
2023-04-18T07:27:26.260Z,73.33
2023-04-18T07:29:31.614Z,72.81
2023-04-18T07:31:38.606Z,73.25
2023-04-18T07:33:46.477Z,73.41
2023-04-18T07:35:54.906Z,73.71
2023-04-18T07:38:00.292Z,73.77
2023-04-18T07:40:06.142Z,73.75
2023-04-18T07:42:11.619Z,73.22
2023-04-18T07:44:16.986Z,72.54
2023-04-18T07:46:24.930Z,72.78
2023-04-18T07:48:30.163Z,72.71
2023-04-18T07:50:39.380Z,71.91
2023-04-18T07:52:50.754Z,71.99
2023-04-18T07:54:56.114Z,71.81
2023-04-18T07:57:02.481Z,71.12
2023-04-18T07:59:07.658Z,71.21
2023-04-18T08:01:15.912Z,70.72
2023-04-18T08:03:22.811Z,70.94
2023-04-18T08:05:28.188Z,70.89
2023-04-18T08:07:36.628Z,70.88
2023-04-18T08:09:42.200Z,71.00
2023-04-18T08:11:47.463Z,71.29
2023-04-18T08:13:53.090Z,70.93
2023-04-18T08:16:00.155Z,70.67
2023-04-18T08:18:06.352Z,70.99
2023-04-18T08:20:13.330Z,70.90
2023-04-18T08:22:19.654Z,71.04
2023-04-18T08:24:27.775Z,71.10
2023-04-18T08:26:32.984Z,70.89
2023-04-18T08:28:46.605Z,70.80
2023-04-18T08:31:00.814Z,70.51
2023-04-18T08:33:06.443Z,70.49
2023-04-18T08:35:12.247Z,70.52
2023-04-18T08:37:18.048Z,70.05
2023-04-18T08:39:24.874Z,69.97
2023-04-18T08:41:40.202Z,69.51
2023-04-18T08:43:45.305Z,68.40
2023-04-18T08:45:50.508Z,68.45
2023-04-18T08:47:56.247Z,68.09
2023-04-18T08:50:01.568Z,67.78
2023-04-18T08:52:12.803Z,67.34
2023-04-18T08:54:22.696Z,67.35
2023-04-18T08:56:27.752Z,66.91
2023-04-18T08:58:38.379Z,67.21
2023-04-18T09:00:46.421Z,66.74
2023-04-18T09:02:57.251Z,67.10
2023-04-18T09:05:02.986Z,66.81
2023-04-18T09:07:10.270Z,67.00
2023-04-18T09:09:16.908Z,66.09
2023-04-18T09:11:29.559Z,65.84
2023-04-18T09:13:48.037Z,65.78
2023-04-18T09:15:59.483Z,65.49
2023-04-18T09:18:06.121Z,65.46
2023-04-18T09:20:13.105Z,65.78
2023-04-18T09:22:19.608Z,65.19
2023-04-18T09:24:27.474Z,65.18
2023-04-18T09:26:37.303Z,64.81
2023-04-18T09:28:45.424Z,64.65
2023-04-18T09:30:51.735Z,64.96
2023-04-18T09:33:01.794Z,64.48
2023-04-18T09:35:09.827Z,63.95
2023-04-18T09:37:15.949Z,64.04
2023-04-18T09:39:30.279Z,64.11
2023-04-18T09:41:35.943Z,62.41
2023-04-18T09:43:41.277Z,61.39
2023-04-18T09:45:50.583Z,61.14
2023-04-18T09:47:56.510Z,60.34
2023-04-18T09:50:01.714Z,60.63
2023-04-18T09:52:11.202Z,62.04
2023-04-18T09:54:21.558Z,61.51
2023-04-18T09:56:28.870Z,61.22
2023-04-18T09:58:36.836Z,61.70
2023-04-18T10:00:45.013Z,61.82
2023-04-18T10:02:59.637Z,62.78
2023-04-18T10:05:08.481Z,63.16
2023-04-18T10:07:14.563Z,62.94
2023-04-18T10:09:20.154Z,62.86
2023-04-18T10:11:26.457Z,62.67
2023-04-18T10:13:32.657Z,61.51
2023-04-18T10:15:38.903Z,62.03
2023-04-18T10:18:02.869Z,62.69
2023-04-18T10:20:20.693Z,63.03
2023-04-18T10:22:31.063Z,63.27
2023-04-18T10:24:53.802Z,62.55
2023-04-18T10:26:59.450Z,61.74
2023-04-18T10:29:04.961Z,61.46
2023-04-18T10:31:10.274Z,60.42
2023-04-18T10:33:31.992Z,61.31
2023-04-18T10:35:58.828Z,60.20
2023-04-18T10:38:05.990Z,58.63
2023-04-18T10:40:12.773Z,57.98
2023-04-18T10:42:20.238Z,57.55
2023-04-18T10:44:27.259Z,58.53
2023-04-18T10:46:33.026Z,58.61
2023-04-18T10:48:40.533Z,58.24
2023-04-18T10:51:15.350Z,54.90
2023-04-18T10:53:23.481Z,54.26
2023-04-18T10:55:31.839Z,55.28
2023-04-18T10:58:28.375Z,56.31
2023-04-18T11:00:40.962Z,58.72
2023-04-18T11:03:08.226Z,58.37
2023-04-18T11:05:37.756Z,57.78
2023-04-18T11:07:54.477Z,56.96
2023-04-18T11:10:26.560Z,55.57
2023-04-18T11:13:29.193Z,55.55
2023-04-18T11:15:43.976Z,55.61
2023-04-18T11:18:05.183Z,57.12
2023-04-18T11:20:23.476Z,56.20
2023-04-18T11:22:44.953Z,55.69
2023-04-18T11:25:02.210Z,55.65
2023-04-18T11:27:16.514Z,55.67
2023-04-18T11:30:19.694Z,55.72
2023-04-18T11:32:36.858Z,55.38
2023-04-18T11:35:13.159Z,56.04
2023-04-18T11:37:35.280Z,55.62
2023-04-18T11:40:04.514Z,55.71
2023-04-18T11:42:16.200Z,55.84
2023-04-18T11:44:57.344Z,56.79
2023-04-18T11:49:49.234Z,59.73
2023-04-18T11:52:26.821Z,60.03
2023-04-18T11:55:30.259Z,59.48
2023-04-18T11:57:46.126Z,60.00
2023-04-18T12:00:13.587Z,60.25
2023-04-18T12:02:35.033Z,59.25
2023-04-18T12:05:20.599Z,59.10
2023-04-18T12:07:52.359Z,59.61
2023-04-18T12:10:04.438Z,59.10
2023-04-18T12:12:10.461Z,58.46
2023-04-18T12:14:34.445Z,58.37
2023-04-18T12:16:43.693Z,58.36
2023-04-18T12:18:55.265Z,58.98
2023-04-18T12:21:02.305Z,59.19
2023-04-18T12:23:26.130Z,59.18
2023-04-18T12:25:41.085Z,58.90
2023-04-18T12:27:59.932Z,57.66
2023-04-18T12:30:26.245Z,56.66
2023-04-18T12:32:55.247Z,55.82
2023-04-18T12:35:06.765Z,56.15
2023-04-18T12:37:32.678Z,56.73
2023-04-18T12:39:45.153Z,56.99
2023-04-18T12:42:01.068Z,56.01
2023-04-18T12:44:13.003Z,55.72
2023-04-18T12:46:32.594Z,54.93
2023-04-18T12:49:00.708Z,54.52
2023-04-18T12:51:23.962Z,54.66
2023-04-18T12:53:44.954Z,54.60
2023-04-18T12:56:02.710Z,54.68
2023-04-18T12:58:26.748Z,54.46
2023-04-18T13:00:36.860Z,54.50
2023-04-18T13:02:55.465Z,53.89
2023-04-18T13:05:12.796Z,54.54
2023-04-18T13:07:30.542Z,55.15
2023-04-18T13:09:44.441Z,55.38
2023-04-18T13:12:00.695Z,56.15
2023-04-18T13:16:49.678Z,56.40
2023-04-18T13:19:02.847Z,56.29
2023-04-18T13:21:22.136Z,56.12
2023-04-18T13:23:30.729Z,56.86
2023-04-18T13:25:44.828Z,56.96
2023-04-18T13:28:02.098Z,57.26
2023-04-18T13:30:25.115Z,56.49
2023-04-18T13:32:43.231Z,56.65
2023-04-18T13:35:11.038Z,56.80
2023-04-18T13:37:24.926Z,57.13
2023-04-18T13:40:00.466Z,57.78
2023-04-18T13:42:29.119Z,58.05
2023-04-18T13:44:50.154Z,57.75
2023-04-18T13:46:57.255Z,57.74
2023-04-18T13:49:15.104Z,58.25
2023-04-18T13:51:35.563Z,58.17
2023-04-18T13:53:58.141Z,57.75
2023-04-18T13:56:19.232Z,57.59
2023-04-18T13:58:44.053Z,57.75
2023-04-18T14:00:53.731Z,58.17
2023-04-18T14:03:06.058Z,58.44
2023-04-18T14:05:14.476Z,58.47
2023-04-18T14:07:34.537Z,58.58
2023-04-18T14:10:12.813Z,58.37
2023-04-18T14:15:35.692Z,57.80
2023-04-18T14:17:51.160Z,58.18
2023-04-18T14:20:25.964Z,57.10
2023-04-18T14:23:00.514Z,56.33
2023-04-18T14:25:10.264Z,56.18
2023-04-18T14:27:29.007Z,56.04
2023-04-18T14:29:37.446Z,55.95
2023-04-18T14:31:54.225Z,55.38
2023-04-18T14:34:08.786Z,54.24
2023-04-18T14:36:23.292Z,53.80
2023-04-18T14:38:35.728Z,53.84
2023-04-18T14:40:58.262Z,54.69
2023-04-18T14:43:09.158Z,55.19
2023-04-18T14:45:19.047Z,55.04
2023-04-18T14:47:31.562Z,55.07
2023-04-18T14:49:41.742Z,54.33
2023-04-18T14:51:50.250Z,54.30
2023-04-18T14:54:06.360Z,54.57
2023-04-18T14:56:22.642Z,54.50
2023-04-18T14:58:32.995Z,54.82
2023-04-18T15:00:39.656Z,54.87
2023-04-18T15:03:06.702Z,54.64
2023-04-18T15:05:26.492Z,54.45
2023-04-18T15:07:36.638Z,54.34
2023-04-18T15:09:49.225Z,54.37
2023-04-18T15:11:58.392Z,54.70
2023-04-18T15:14:12.893Z,55.16
2023-04-18T15:16:24.358Z,55.88
2023-04-18T15:18:58.822Z,55.76
2023-04-18T15:21:08.977Z,55.95
2023-04-18T15:23:21.964Z,56.26
2023-04-18T15:25:35.767Z,55.65
2023-04-18T15:27:50.802Z,56.41
2023-04-18T15:29:57.073Z,56.26
2023-04-18T15:32:21.695Z,56.73
2023-04-18T15:34:36.526Z,56.38
2023-04-18T15:37:03.437Z,57.21
2023-04-18T15:39:20.717Z,57.16
2023-04-18T15:41:30.818Z,56.96
2023-04-18T15:43:35.794Z,57.07
2023-04-18T15:45:44.758Z,56.41
2023-04-18T15:47:50.061Z,56.29
2023-04-18T15:49:55.014Z,56.48
2023-04-18T15:51:59.847Z,56.06
2023-04-18T15:54:06.179Z,56.32
2023-04-18T15:56:11.200Z,56.82
2023-04-18T15:58:20.882Z,56.76
2023-04-18T16:00:26.739Z,56.72
2023-04-18T16:02:32.890Z,56.89
2023-04-18T16:04:39.883Z,57.11
2023-04-18T16:06:44.990Z,56.86
2023-04-18T16:08:53.352Z,56.19
2023-04-18T16:10:58.142Z,56.29
2023-04-18T16:13:04.350Z,56.11
2023-04-18T16:15:16.341Z,56.41
2023-04-18T16:17:26.506Z,56.00
2023-04-18T16:19:33.907Z,56.67
2023-04-18T16:21:44.645Z,57.12
2023-04-18T16:24:29.820Z,56.71
2023-04-18T16:29:44.848Z,55.97
2023-04-18T16:31:58.454Z,56.31
2023-04-18T16:34:07.792Z,56.49
2023-04-18T16:36:23.401Z,56.17
2023-04-18T16:41:56.486Z,55.96
2023-04-18T16:44:25.504Z,56.14
2023-04-18T16:46:55.692Z,56.33
2023-04-18T17:00:23.779Z,56.93
2023-04-18T17:02:45.366Z,56.93
2023-04-18T17:05:43.488Z,57.01
2023-04-18T17:10:48.886Z,57.86
2023-04-18T17:13:00.206Z,57.88
2023-04-18T17:15:11.457Z,58.18
2023-04-18T17:17:40.932Z,58.40
2023-04-18T17:20:11.223Z,57.86
2023-04-18T17:25:32.477Z,58.79
2023-04-18T17:28:24.094Z,58.93
2023-04-18T17:30:54.116Z,59.44
2023-04-18T17:33:21.442Z,59.25
2023-04-18T17:35:56.274Z,58.87
2023-04-18T17:38:13.160Z,59.43
2023-04-18T17:40:52.239Z,59.51
2023-04-18T17:43:55.087Z,59.07
2023-04-18T17:49:27.414Z,59.76
2023-04-18T18:00:43.226Z,60.62
2023-04-18T18:06:12.693Z,61.23
2023-04-18T18:08:50.141Z,61.83
2023-04-18T18:11:43.864Z,61.88
2023-04-18T18:20:18.615Z,63.66
2023-04-18T18:25:43.198Z,64.41
2023-04-18T18:28:09.864Z,64.22
2023-04-18T18:30:38.752Z,64.52
2023-04-18T18:33:07.114Z,65.21
2023-04-18T18:35:36.927Z,65.29
2023-04-18T18:37:42.567Z,65.56
2023-04-18T18:40:22.625Z,66.26
2023-04-18T18:45:49.845Z,66.73
2023-04-18T18:48:23.747Z,67.07
2023-04-18T18:53:18.623Z,67.43
2023-04-18T18:55:37.714Z,67.50
2023-04-18T18:58:10.745Z,67.25
2023-04-18T19:00:41.095Z,68.17
2023-04-18T19:03:08.293Z,68.35
2023-04-18T19:05:53.388Z,68.66
2023-04-18T19:08:26.844Z,68.93
2023-04-18T19:11:32.164Z,69.65
2023-04-18T19:13:37.193Z,70.13
2023-04-18T19:15:42.211Z,69.96
2023-04-18T19:17:49.908Z,70.43
2023-04-18T19:19:58.092Z,70.59
2023-04-18T19:22:03.191Z,70.47
2023-04-18T19:24:12.013Z,71.38
2023-04-18T19:26:18.711Z,71.09
2023-04-18T19:28:40.419Z,70.84
2023-04-18T19:31:00.538Z,70.95
2023-04-18T19:33:42.161Z,71.78
2023-04-18T19:41:46.163Z,72.44
2023-04-18T19:44:32.266Z,72.61
2023-04-18T19:47:07.669Z,72.96
2023-04-18T19:49:58.487Z,73.05
2023-04-18T19:52:28.317Z,73.55
2023-04-18T19:55:13.037Z,73.20
2023-04-18T19:58:23.706Z,73.59
2023-04-18T20:01:02.000Z,73.35
2023-04-18T20:06:21.155Z,74.43
2023-04-18T20:12:09.442Z,74.32
2023-04-18T20:17:20.849Z,74.69
2023-04-18T20:20:11.139Z,75.15
2023-04-18T20:22:55.688Z,76.13
2023-04-18T20:28:22.398Z,75.37
2023-04-18T20:30:29.217Z,75.68
2023-04-18T20:32:43.486Z,75.05
2023-04-18T20:34:50.206Z,74.89
2023-04-18T20:37:45.248Z,74.67
2023-04-18T20:40:46.977Z,74.13
2023-04-18T20:43:33.989Z,74.30
2023-04-18T20:58:41.989Z,74.29
2023-04-18T21:01:30.226Z,74.18
2023-04-18T21:03:38.440Z,73.98
2023-04-18T21:05:46.122Z,74.08
2023-04-18T21:07:54.551Z,74.02
2023-04-18T21:10:03.173Z,74.00
2023-04-18T21:12:11.979Z,74.21
2023-04-18T21:14:24.887Z,74.26
2023-04-18T21:16:39.993Z,74.18
2023-04-18T21:18:45.647Z,74.38
2023-04-18T21:20:53.302Z,74.55
2023-04-18T21:23:02.112Z,74.01
2023-04-18T21:25:07.862Z,74.04
2023-04-18T21:27:13.491Z,73.68
2023-04-18T21:29:24.732Z,74.04
2023-04-18T21:31:31.891Z,73.66
2023-04-18T21:33:38.658Z,73.96
2023-04-18T21:35:44.118Z,73.89
2023-04-18T21:37:55.928Z,73.67
2023-04-18T21:40:00.820Z,74.13
2023-04-18T21:42:05.631Z,73.71
2023-04-18T21:44:12.065Z,73.35
2023-04-18T21:46:20.164Z,73.50
2023-04-18T21:48:25.270Z,73.61
2023-04-18T21:50:30.274Z,73.54
2023-04-18T21:52:36.796Z,73.47
2023-04-18T21:54:42.237Z,73.49
2023-04-18T21:56:47.214Z,73.81
2023-04-18T21:58:53.046Z,73.92
2023-04-18T22:00:58.066Z,74.25
2023-04-18T22:03:06.645Z,74.17
2023-04-18T22:05:13.095Z,74.08
2023-04-18T22:07:19.353Z,73.97
2023-04-18T22:09:24.809Z,74.45
2023-04-18T22:11:30.100Z,74.30
2023-04-18T22:13:35.951Z,74.52
2023-04-18T22:15:42.771Z,74.53
2023-04-18T22:17:50.338Z,74.51
2023-04-18T22:19:58.431Z,74.78
2023-04-18T22:22:03.268Z,74.60
2023-04-18T22:24:19.886Z,74.87
2023-04-18T22:26:28.526Z,74.93
2023-04-18T22:28:34.276Z,75.48
2023-04-18T22:30:42.282Z,74.88
2023-04-18T22:32:51.244Z,75.27
2023-04-18T22:34:59.923Z,75.09
2023-04-18T22:37:06.144Z,75.12
2023-04-18T22:39:12.324Z,75.18
2023-04-18T22:41:19.929Z,75.28
2023-04-18T22:43:25.838Z,75.57
2023-04-18T22:45:30.806Z,75.40
2023-04-18T22:47:36.779Z,75.71
2023-04-18T22:49:42.407Z,75.74
2023-04-18T22:51:50.052Z,75.70
2023-04-18T22:53:55.300Z,75.66
2023-04-18T22:56:00.483Z,75.86
2023-04-18T22:58:07.566Z,75.61
2023-04-18T23:00:14.210Z,75.73
2023-04-18T23:02:19.838Z,75.83
2023-04-18T23:04:24.831Z,75.82
2023-04-18T23:06:30.409Z,75.88
2023-04-18T23:08:38.339Z,75.58
2023-04-18T23:10:43.476Z,75.87
2023-04-18T23:12:48.505Z,75.78
2023-04-18T23:14:53.661Z,75.77
2023-04-18T23:16:58.856Z,75.68
2023-04-18T23:19:04.323Z,76.28
2023-04-18T23:21:10.898Z,76.23
2023-04-18T23:23:15.851Z,76.35
2023-04-18T23:25:23.525Z,76.57
2023-04-18T23:27:31.421Z,76.75
2023-04-18T23:29:41.850Z,76.74
2023-04-18T23:31:48.280Z,76.92
2023-04-18T23:33:53.352Z,76.81
2023-04-18T23:35:58.447Z,77.02
2023-04-18T23:38:03.719Z,77.10
2023-04-18T23:40:11.333Z,77.32
2023-04-18T23:42:20.662Z,77.61
2023-04-18T23:44:27.647Z,77.85
2023-04-18T23:46:34.389Z,77.90
2023-04-18T23:48:42.208Z,77.84
2023-04-18T23:50:49.537Z,77.99
2023-04-18T23:52:54.748Z,78.13
2023-04-18T23:55:02.739Z,78.38
2023-04-18T23:57:09.208Z,78.51
2023-04-18T23:59:19.815Z,78.71
